Time;durP1;ratioP1;P1;durP2;ratioP2;P2;SDS_P1;SDS_P2;PMS_P1;PMS_P2;Temp;Humidity;BMP_temperature;BMP_pressure;BME280_temperature;BME280_humidity;BME280_pressure;Samples;Min_cycle;Max_cycle;Signal;HPM_P1;HPM_P2
2021/06/01 00:02:18;;;;;;;5.33;3.27;;;14.80;69.60;;;;;;6224374;28;20917;-60
2021/06/01 00:05:21;;;;;;;3.37;3.07;;;14.80;69.40;;;;;;6224100;28;20522;-60
2021/06/01 00:08:25;;;;;;;3.63;3.33;;;14.70;70.00;;;;;;6224350;28;20452;-62
2021/06/01 00:11:28;;;;;;;3.70;3.20;;;14.60;70.90;;;;;;6224538;28;20572;-64
2021/06/01 00:14:31;;;;;;;4.73;3.63;;;14.70;71.30;;;;;;6224017;28;20949;-60
2021/06/01 00:17:34;;;;;;;2.80;2.60;;;14.70;71.50;;;;;;6226617;28;20487;-62
2021/06/01 00:20:37;;;;;;;4.77;3.70;;;14.70;71.80;;;;;;6228675;28;20464;-62
2021/06/01 00:23:41;;;;;;;3.10;2.87;;;14.60;72.00;;;;;;6228806;28;20810;-60
2021/06/01 00:26:45;;;;;;;4.50;3.50;;;14.60;71.70;;;;;;6228605;28;20467;-60
2021/06/01 00:29:47;;;;;;;3.50;3.20;;;14.50;71.50;;;;;;6219466;28;20464;-60
2021/06/01 00:32:50;;;;;;;3.70;3.40;;;14.50;71.30;;;;;;6228250;28;20478;-60
2021/06/01 00:35:54;;;;;;;3.80;2.87;;;14.40;70.90;;;;;;6227817;28;20778;-60
2021/06/01 00:38:58;;;;;;;3.00;2.80;;;14.40;72.10;;;;;;6228066;28;20468;-60
2021/06/01 00:42:01;;;;;;;3.30;3.00;;;14.40;71.90;;;;;;6228010;28;20487;-60
2021/06/01 00:45:05;;;;;;;3.40;3.10;;;14.50;71.60;;;;;;6227598;28;20502;-60
2021/06/01 00:48:08;;;;;;;3.67;3.37;;;14.40;72.00;;;;;;6227824;28;20491;-63
2021/06/01 00:51:11;;;;;;;3.30;3.10;;;14.50;72.20;;;;;;6227826;28;20565;-64
2021/06/01 00:54:15;;;;;;;3.60;2.87;;;14.50;72.50;;;;;;6227796;28;20539;-62
2021/06/01 00:57:18;;;;;;;3.73;3.43;;;14.50;73.00;;;;;;6227560;28;20479;-60
2021/06/01 01:00:40;;;;;;;3.27;3.07;;;14.50;73.00;;;;;;6227558;28;20476;-59
2021/06/01 01:03:43;;;;;;;4.17;3.77;;;14.40;73.10;;;;;;6227448;28;20970;-60
2021/06/01 01:06:57;;;;;;;3.40;3.10;;;14.40;73.80;;;;;;6227463;28;20483;-60
2021/06/01 01:10:01;;;;;;;3.57;3.27;;;14.40;74.10;;;;;;6226914;28;20483;-60
2021/06/01 01:13:06;;;;;;;3.23;2.93;;;14.30;74.50;;;;;;6227462;28;21003;-60
2021/06/01 01:16:10;;;;;;;4.53;3.80;;;14.20;74.70;;;;;;6226836;28;20471;-60
2021/06/01 01:19:14;;;;;;;3.93;3.53;;;14.20;75.10;;;;;;6227104;28;20569;-60
2021/06/01 01:22:18;;;;;;;4.90;3.73;;;14.10;75.70;;;;;;6226892;28;20468;-60
2021/06/01 01:25:28;;;;;;;3.20;2.90;;;14.10;76.20;;;;;;6226955;28;20961;-60
2021/06/01 01:28:40;;;;;;;3.50;3.20;;;14.00;76.70;;;;;;6226295;28;21001;-60
2021/06/01 01:31:49;;;;;;;3.53;3.30;;;13.90;77.60;;;;;;6227492;28;20530;-59
2021/06/01 01:34:54;;;;;;;4.10;3.20;;;13.80;78.20;;;;;;6221842;28;20498;-60
2021/06/01 01:38:00;;;;;;;3.30;3.00;;;13.80;78.50;;;;;;6226839;28;20466;-60
2021/06/01 01:41:07;;;;;;;3.80;3.50;;;13.70;79.00;;;;;;6226906;28;20432;-60
2021/06/01 01:44:12;;;;;;;3.23;3.03;;;13.60;79.60;;;;;;6226863;28;20455;-60
2021/06/01 01:50:34;;;;;;;2.87;2.67;;;13.40;80.60;;;;;;6226179;28;20490;-60
2021/06/01 01:53:37;;;;;;;3.23;2.93;;;13.40;80.70;;;;;;6226364;28;20468;-60
2021/06/01 01:56:46;;;;;;;4.57;4.17;;;13.40;80.90;;;;;;6223625;28;20758;-60
2021/06/01 01:59:50;;;;;;;4.10;3.60;;;13.40;81.60;;;;;;6226072;28;20480;-59
2021/06/01 02:02:53;;;;;;;3.33;3.03;;;13.30;82.20;;;;;;6226033;28;20486;-59
2021/06/01 02:05:59;;;;;;;5.00;4.50;;;13.20;82.20;;;;;;6225939;28;20526;-60
2021/06/01 02:09:04;;;;;;;3.23;3.00;;;13.30;82.50;;;;;;6226035;28;20491;-60
2021/06/01 02:12:07;;;;;;;5.70;3.70;;;13.30;82.70;;;;;;6226192;28;20929;-59
2021/06/01 02:15:11;;;;;;;3.83;3.53;;;13.30;82.70;;;;;;6225683;28;20487;-59
2021/06/01 02:18:14;;;;;;;4.50;4.10;;;13.30;82.80;;;;;;6225957;28;21027;-59
2021/06/01 02:21:23;;;;;;;4.07;3.77;;;13.30;82.90;;;;;;6225661;28;20487;-59
2021/06/01 02:24:29;;;;;;;3.83;3.53;;;13.30;83.20;;;;;;6225884;28;20471;-59
2021/06/01 02:27:36;;;;;;;4.33;4.03;;;13.30;83.10;;;;;;6225831;28;20487;-59
2021/06/01 02:30:47;;;;;;;4.20;3.80;;;13.20;83.10;;;;;;6225708;28;20543;-60
2021/06/01 02:33:51;;;;;;;3.73;3.40;;;13.20;83.80;;;;;;6225304;28;20480;-60
2021/06/01 02:36:55;;;;;;;4.37;3.97;;;13.20;83.90;;;;;;6212156;28;20472;-60
2021/06/01 02:40:00;;;;;;;4.23;3.80;;;13.10;84.30;;;;;;6224698;28;20491;-60
2021/06/01 02:43:07;;;;;;;5.00;4.50;;;13.00;85.00;;;;;;6225433;28;20910;-60
2021/06/01 02:46:10;;;;;;;3.77;3.27;;;13.00;85.30;;;;;;6224991;28;20484;-60
2021/06/01 02:49:15;;;;;;;3.90;3.60;;;12.90;85.50;;;;;;6224924;28;20792;-60
2021/06/01 02:52:20;;;;;;;3.93;3.30;;;12.90;85.90;;;;;;6225083;28;20475;-60
2021/06/01 02:55:24;;;;;;;3.33;3.03;;;12.90;86.20;;;;;;6225283;28;20513;-60
2021/06/01 02:58:26;;;;;;;4.13;3.67;;;12.70;86.90;;;;;;6224625;28;20583;-60
2021/06/01 03:01:30;;;;;;;5.20;4.33;;;12.60;87.50;;;;;;6225313;28;20468;-60
2021/06/01 03:04:33;;;;;;;4.90;4.37;;;12.70;87.70;;;;;;6225065;28;21009;-59
2021/06/01 03:07:39;;;;;;;7.33;4.30;;;12.60;87.20;;;;;;6225077;28;20471;-59
2021/06/01 03:10:42;;;;;;;4.77;4.37;;;12.60;87.60;;;;;;6224943;28;20483;-59
2021/06/01 03:13:45;;;;;;;4.30;3.37;;;12.50;87.60;;;;;;6224540;28;20479;-59
2021/06/01 03:16:48;;;;;;;3.80;3.50;;;12.50;88.10;;;;;;6224755;28;20824;-60
2021/06/01 03:19:50;;;;;;;3.97;3.67;;;12.50;88.30;;;;;;6224427;28;20467;-59
2021/06/01 03:22:55;;;;;;;4.67;4.30;;;12.50;88.20;;;;;;6225119;28;20486;-59
2021/06/01 03:25:58;;;;;;;3.70;3.40;;;12.50;88.50;;;;;;6224223;28;20938;-60
2021/06/01 03:29:01;;;;;;;6.30;3.63;;;12.40;88.40;;;;;;6225054;28;20444;-59
2021/06/01 03:32:05;;;;;;;4.17;3.77;;;12.40;88.60;;;;;;6224794;28;20909;-59
2021/06/01 03:35:09;;;;;;;4.00;3.70;;;12.30;88.60;;;;;;6224499;28;20498;-62
2021/06/01 03:38:13;;;;;;;4.03;3.63;;;12.20;89.20;;;;;;6210961;28;20444;-63
2021/06/01 03:41:16;;;;;;;4.67;4.27;;;12.20;89.70;;;;;;6224793;28;20552;-61
2021/06/01 03:44:19;;;;;;;6.23;3.70;;;12.20;90.00;;;;;;6224897;28;20771;-61
2021/06/01 03:47:21;;;;;;;3.87;3.57;;;12.30;90.00;;;;;;6224578;28;20475;-62
2021/06/01 03:50:24;;;;;;;4.90;4.33;;;12.30;89.80;;;;;;6225673;28;20946;-62
2021/06/01 03:53:28;;;;;;;6.50;4.73;;;12.30;90.00;;;;;;6229029;28;20472;-63
2021/06/01 03:56:34;;;;;;;4.03;3.60;;;12.40;90.00;;;;;;6229321;28;20474;-62
2021/06/01 03:59:36;;;;;;;4.00;3.70;;;12.40;90.20;;;;;;6228676;28;20490;-60
2021/06/01 04:02:39;;;;;;;6.37;3.90;;;12.40;90.10;;;;;;6228804;28;20484;-60
2021/06/01 04:05:42;;;;;;;4.30;3.90;;;12.50;90.10;;;;;;6228529;28;20819;-62
2021/06/01 04:08:46;;;;;;;5.03;3.60;;;12.50;89.60;;;;;;6229262;28;20479;-62
2021/06/01 04:11:49;;;;;;;5.57;4.07;;;12.60;89.70;;;;;;6228581;28;20467;-62
2021/06/01 04:14:52;;;;;;;4.47;4.07;;;12.60;89.90;;;;;;6228848;28;20495;-62
2021/06/01 04:17:54;;;;;;;3.43;3.20;;;12.70;90.00;;;;;;6228545;28;20483;-62
2021/06/01 04:20:59;;;;;;;5.70;4.70;;;12.80;90.00;;;;;;6228527;28;20836;-62
2021/06/01 04:24:03;;;;;;;5.33;4.57;;;12.90;89.70;;;;;;6228575;28;20976;-62
2021/06/01 04:27:07;;;;;;;4.10;3.80;;;12.90;90.00;;;;;;6228387;28;20474;-63
2021/06/01 04:30:11;;;;;;;6.17;4.23;;;12.90;88.80;;;;;;6228685;28;20476;-64
2021/06/01 04:33:14;;;;;;;4.10;3.63;;;12.90;88.70;;;;;;6227861;28;20818;-62
2021/06/01 04:36:17;;;;;;;4.60;4.20;;;12.90;88.80;;;;;;6227958;28;20646;-62
2021/06/01 04:39:21;;;;;;;4.83;3.90;;;13.00;89.30;;;;;;6228002;28;20471;-63
2021/06/01 04:42:24;;;;;;;5.67;4.47;;;13.20;88.90;;;;;;6227913;28;20480;-62
2021/06/01 04:45:27;;;;;;;7.63;4.60;;;13.30;88.40;;;;;;6227172;28;20494;-64
2021/06/01 04:48:30;;;;;;;7.03;4.20;;;13.50;87.40;;;;;;6228051;28;20467;-62
2021/06/01 04:51:33;;;;;;;5.00;4.50;;;13.60;84.90;;;;;;6227491;28;20491;-63
2021/06/01 04:54:37;;;;;;;6.33;5.13;;;13.80;85.20;;;;;;6227888;28;20480;-63
2021/06/01 04:57:40;;;;;;;5.30;4.27;;;14.00;84.10;;;;;;6227577;28;20472;-62
2021/06/01 05:00:43;;;;;;;4.33;3.93;;;14.40;83.80;;;;;;6227610;28;20495;-62
2021/06/01 05:03:46;;;;;;;8.57;5.70;;;14.70;82.80;;;;;;6226764;28;21033;-62
2021/06/01 05:06:48;;;;;;;4.50;4.10;;;14.80;81.60;;;;;;6227338;28;20463;-63
2021/06/01 05:09:59;;;;;;;5.33;4.83;;;15.00;79.80;;;;;;6227347;28;20992;-63
2021/06/01 05:13:02;;;;;;;4.03;3.67;;;15.20;79.20;;;;;;6227050;28;20475;-63
2021/06/01 05:16:06;;;;;;;6.07;4.27;;;15.30;77.30;;;;;;6227098;28;20499;-64
2021/06/01 05:19:09;;;;;;;4.80;4.10;;;15.50;76.60;;;;;;6226768;28;20550;-63
2021/06/01 05:22:12;;;;;;;4.40;4.10;;;15.50;75.10;;;;;;6227141;28;20475;-64
2021/06/01 05:25:17;;;;;;;6.87;4.50;;;15.60;74.60;;;;;;6226839;28;20485;-63
2021/06/01 05:28:20;;;;;;;4.90;4.37;;;15.60;74.30;;;;;;6227072;28;20476;-63
2021/06/01 05:31:25;;;;;;;7.50;4.40;;;15.70;73.50;;;;;;6227111;28;20489;-62
2021/06/01 05:34:29;;;;;;;4.20;3.80;;;15.70;72.90;;;;;;6226762;28;20476;-61
2021/06/01 05:37:35;;;;;;;4.47;4.07;;;15.60;73.10;;;;;;6226731;28;20483;-61
2021/06/01 05:40:39;;;;;;;4.00;3.70;;;15.70;73.40;;;;;;6226948;28;20483;-61
2021/06/01 05:43:42;;;;;;;5.50;4.00;;;15.70;72.50;;;;;;6226333;28;20475;-62
2021/06/01 05:46:45;;;;;;;4.27;3.87;;;15.80;72.10;;;;;;6226591;28;20471;-62
2021/06/01 05:49:47;;;;;;;5.60;3.90;;;15.90;71.20;;;;;;6226279;28;20475;-64
2021/06/01 05:52:50;;;;;;;3.73;3.43;;;15.80;69.90;;;;;;6226574;28;20487;-60
2021/06/01 05:55:55;;;;;;;3.90;3.40;;;15.90;70.40;;;;;;6226269;28;20788;-61
2021/06/01 05:58:58;;;;;;;6.13;4.30;;;16.00;70.40;;;;;;6250171;28;20475;-62
2021/06/01 06:02:01;;;;;;;6.40;3.93;;;16.20;70.40;;;;;;6250937;28;20447;-60
2021/06/01 06:05:05;;;;;;;5.67;4.50;;;16.70;69.30;;;;;;6250274;28;20521;-60
2021/06/01 06:08:09;;;;;;;4.87;3.97;;;17.30;67.20;;;;;;6250944;28;20439;-63
2021/06/01 06:11:13;;;;;;;4.50;3.70;;;17.20;66.30;;;;;;6250358;28;20925;-62
2021/06/01 06:14:16;;;;;;;7.43;4.40;;;17.10;66.70;;;;;;6249758;28;20477;-63
2021/06/01 06:17:30;;;;;;;4.93;3.63;;;17.00;67.20;;;;;;6250427;28;20462;-62
2021/06/01 06:20:34;;;;;;;4.23;3.93;;;16.80;67.40;;;;;;6250104;28;20482;-63
2021/06/01 06:23:40;;;;;;;4.83;4.43;;;16.70;68.00;;;;;;6250320;28;20478;-64
2021/06/01 06:26:45;;;;;;;3.97;3.67;;;16.70;68.20;;;;;;6250412;28;20471;-60
2021/06/01 06:29:48;;;;;;;5.50;4.37;;;16.80;67.90;;;;;;6250225;28;20483;-62
2021/06/01 06:32:51;;;;;;;6.30;3.93;;;16.80;66.90;;;;;;6250180;28;20952;-63
2021/06/01 06:35:54;;;;;;;3.90;3.60;;;16.90;66.80;;;;;;6249592;28;20483;-62
2021/06/01 06:38:57;;;;;;;4.80;4.40;;;17.10;67.10;;;;;;6250243;28;20470;-62
2021/06/01 06:42:02;;;;;;;4.90;4.37;;;17.30;66.80;;;;;;6250215;28;20478;-60
2021/06/01 06:45:08;;;;;;;7.13;4.90;;;17.90;65.60;;;;;;6249913;28;20486;-60
2021/06/01 06:48:27;;;;;;;7.07;4.77;;;18.50;64.40;;;;;;6249451;28;20940;-60
2021/06/01 06:51:29;;;;;;;6.60;4.70;;;19.10;62.40;;;;;;6250033;28;20471;-63
2021/06/01 06:54:32;;;;;;;7.40;5.50;;;19.00;62.60;;;;;;6249797;28;20482;-63
2021/06/01 06:57:38;;;;;;;6.30;4.97;;;19.30;62.20;;;;;;6249027;28;20567;-63
2021/06/01 07:00:41;;;;;;;5.43;4.93;;;20.30;60.50;;;;;;6249669;28;20228;-62
2021/06/01 07:03:43;;;;;;;5.03;4.37;;;22.00;57.20;;;;;;6249164;28;20705;-64
2021/06/01 07:06:48;;;;;;;5.83;4.57;;;23.40;53.10;;;;;;6249528;28;20228;-64
2021/06/01 07:09:51;;;;;;;5.67;4.13;;;24.00;49.60;;;;;;6249619;28;20686;-65
2021/06/01 07:13:00;;;;;;;5.00;4.50;;;24.20;48.30;;;;;;6249708;28;20234;-61
2021/06/01 07:16:03;;;;;;;5.30;4.90;;;23.70;47.50;;;;;;6248969;28;20232;-63
2021/06/01 07:19:06;;;;;;;5.23;4.83;;;23.80;48.70;;;;;;6248872;28;20228;-62
2021/06/01 07:22:09;;;;;;;4.40;4.00;;;23.50;48.30;;;;;;6249173;28;20593;-63
2021/06/01 07:25:12;;;;;;;6.33;4.20;;;23.10;48.50;;;;;;6249967;28;20246;-62
2021/06/01 07:28:16;;;;;;;5.10;4.70;;;23.70;48.00;;;;;;6253990;28;20228;-62
2021/06/01 07:31:20;;;;;;;4.70;4.30;;;23.60;47.90;;;;;;6254165;28;20712;-63
2021/06/01 07:34:22;;;;;;;4.20;3.90;;;24.70;47.30;;;;;;6253974;28;20243;-63
2021/06/01 07:37:25;;;;;;;4.80;4.37;;;26.60;44.40;;;;;;6253680;28;20227;-62
2021/06/01 07:40:28;;;;;;;5.63;4.77;;;28.20;41.50;;;;;;6254340;28;20234;-60
2021/06/01 07:43:33;;;;;;;5.27;4.77;;;29.40;39.30;;;;;;6253839;28;20231;-63
2021/06/01 07:46:35;;;;;;;5.13;3.80;;;30.10;37.70;;;;;;6253958;28;20231;-62
2021/06/01 07:49:38;;;;;;;4.53;4.10;;;30.50;36.50;;;;;;6253490;28;20231;-59
2021/06/01 07:52:41;;;;;;;5.07;4.67;;;29.60;36.40;;;;;;6244824;28;20566;-63
2021/06/01 07:55:44;;;;;;;9.30;4.27;;;29.00;36.60;;;;;;6253421;28;20242;-62
2021/06/01 07:58:49;;;;;;;4.53;4.10;;;28.60;37.90;;;;;;6253481;28;20239;-62
2021/06/01 08:01:52;;;;;;;6.17;4.60;;;27.70;39.20;;;;;;6253381;28;20227;-62
2021/06/01 08:04:54;;;;;;;5.33;4.83;;;27.10;39.50;;;;;;6253205;28;20582;-62
2021/06/01 08:07:57;;;;;;;5.70;5.10;;;26.70;39.80;;;;;;6253308;28;20696;-62
2021/06/01 08:11:00;;;;;;;6.63;6.13;;;26.50;39.60;;;;;;6253300;28;20215;-62
2021/06/01 08:14:04;;;;;;;6.80;4.57;;;26.30;40.70;;;;;;6253260;28;20697;-61
2021/06/01 08:17:07;;;;;;;4.47;4.07;;;26.30;40.70;;;;;;6252809;28;20563;-62
2021/06/01 08:20:14;;;;;;;4.67;3.67;;;26.10;40.50;;;;;;6252940;28;20207;-62
2021/06/01 08:23:17;;;;;;;4.67;3.53;;;25.70;41.00;;;;;;6252761;28;20661;-63
2021/06/01 08:26:19;;;;;;;4.57;4.17;;;25.30;41.30;;;;;;6253177;28;20244;-61
2021/06/01 08:29:23;;;;;;;5.57;4.20;;;24.50;41.50;;;;;;6252573;28;20224;-61
2021/06/01 08:32:26;;;;;;;4.27;3.73;;;23.90;42.70;;;;;;6253123;28;20231;-63
2021/06/01 08:35:29;;;;;;;4.33;3.93;;;23.40;43.70;;;;;;6252705;28;20543;-61
2021/06/01 08:38:32;;;;;;;3.73;3.40;;;23.00;43.80;;;;;;6252003;28;20232;-62
2021/06/01 08:41:35;;;;;;;4.03;3.60;;;22.80;44.10;;;;;;6252712;28;20228;-62
2021/06/01 08:44:39;;;;;;;4.50;4.10;;;22.30;45.30;;;;;;6253035;28;20228;-63
2021/06/01 08:47:42;;;;;;;4.13;3.70;;;21.70;45.70;;;;;;6252037;28;20565;-63
2021/06/01 08:50:48;;;;;;;4.03;3.73;;;21.50;46.00;;;;;;6252633;28;20224;-63
2021/06/01 08:53:53;;;;;;;3.67;3.23;;;21.40;46.10;;;;;;6243660;28;20240;-61
2021/06/01 08:56:56;;;;;;;3.60;3.30;;;21.30;45.90;;;;;;6252400;28;20239;-59
2021/06/01 09:00:00;;;;;;;3.47;2.93;;;21.30;45.70;;;;;;6252305;28;20232;-62
2021/06/01 09:03:07;;;;;;;4.20;3.30;;;21.30;46.10;;;;;;6252238;28;20235;-61
2021/06/01 09:06:17;;;;;;;5.73;3.30;;;21.30;44.90;;;;;;6252040;28;20240;-61
2021/06/01 09:09:34;;;;;;;3.60;3.30;;;21.30;45.00;;;;;;6252180;28;20228;-65
2021/06/01 09:12:54;;;;;;;3.30;2.90;;;21.20;43.70;;;;;;6251640;28;20232;-59
2021/06/01 09:20:56;;;;;;;3.30;3.00;;;21.30;43.00;;;;;;6251542;28;20311;-61
2021/06/01 09:23:19;;;;;;;3.03;2.67;;;21.30;43.70;;;;;;6251186;28;20231;-61
2021/06/01 09:26:42;;;;;;;3.90;3.07;;;21.20;44.30;;;;;;6251830;28;20642;-62
2021/06/01 09:29:48;;;;;;;2.30;2.20;;;21.10;43.90;;;;;;6251365;28;20232;-64
2021/06/01 09:32:52;;;;;;;3.07;2.73;;;21.50;44.10;;;;;;6252336;28;20223;-64
2021/06/01 09:35:57;;;;;;;2.87;2.40;;;21.60;42.90;;;;;;6251057;28;20666;-62
2021/06/01 09:39:00;;;;;;;3.80;3.00;;;21.80;43.00;;;;;;6251851;28;20840;-63
2021/06/01 09:42:24;;;;;;;3.20;2.63;;;22.10;42.70;;;;;;6251012;28;20228;-61
2021/06/01 09:45:27;;;;;;;6.60;2.63;;;22.70;41.60;;;;;;6251024;28;20240;-63
2021/06/01 09:48:31;;;;;;;3.40;2.70;;;22.30;41.40;;;;;;6251295;28;20270;-62
2021/06/01 09:51:36;;;;;;;2.70;2.50;;;22.50;42.00;;;;;;6251051;28;20240;-59
2021/06/01 09:54:44;;;;;;;3.50;2.63;;;22.90;40.50;;;;;;6246581;28;20236;-59
2021/06/01 09:57:46;;;;;;;2.50;2.30;;;22.80;40.40;;;;;;6250820;28;20259;-62
2021/06/01 10:00:50;;;;;;;6.23;2.70;;;22.90;40.70;;;;;;6250838;28;20224;-62
2021/06/01 10:03:54;;;;;;;5.67;2.93;;;23.00;40.00;;;;;;6250769;28;20294;-62
2021/06/01 10:06:59;;;;;;;3.33;2.50;;;23.10;40.00;;;;;;6250430;28;20236;-62
2021/06/01 10:10:12;;;;;;;2.77;2.57;;;23.30;40.10;;;;;;6250495;28;20232;-62
2021/06/01 10:13:16;;;;;;;2.20;2.00;;;23.60;39.80;;;;;;6250565;28;20235;-60
2021/06/01 10:16:18;;;;;;;2.47;2.27;;;23.80;38.40;;;;;;6250600;28;20231;-60
2021/06/01 10:19:22;;;;;;;3.03;2.10;;;23.90;37.90;;;;;;6250184;28;20248;-60
2021/06/01 10:22:26;;;;;;;2.30;2.10;;;23.90;37.50;;;;;;6250222;28;20232;-59
2021/06/01 10:25:29;;;;;;;3.47;2.30;;;23.60;38.10;;;;;;6250379;28;20240;-59
2021/06/01 10:28:34;;;;;;;2.60;2.40;;;23.70;37.80;;;;;;6250367;28;20227;-59
2021/06/01 10:31:38;;;;;;;2.13;1.93;;;23.20;38.00;;;;;;6250280;28;20232;-59
2021/06/01 10:34:43;;;;;;;3.37;2.87;;;23.10;38.10;;;;;;6249702;28;20251;-59
2021/06/01 10:44:52;;;;;;;3.33;2.27;;;22.80;38.70;;;;;;6249533;28;20673;-60
2021/06/01 10:51:27;;;;;;;3.10;2.50;;;23.00;38.20;;;;;;6249236;28;20725;-60
2021/06/01 10:55:08;;;;;;;3.60;3.07;;;23.00;37.90;;;;;;6249827;28;20240;-60
2021/06/01 10:58:11;;;;;;;3.23;2.27;;;23.40;38.60;;;;;;6245032;28;20247;-60
2021/06/01 11:05:09;;;;;;;2.90;2.27;;;24.00;37.90;;;;;;6249178;28;20315;-60
2021/06/01 11:08:34;;;;;;;2.80;2.50;;;24.20;37.40;;;;;;6249169;28;20211;-60
2021/06/01 11:11:38;;;;;;;3.33;2.87;;;24.50;36.50;;;;;;6249692;28;20239;-60
2021/06/01 11:14:41;;;;;;;3.40;2.57;;;24.10;36.50;;;;;;6249233;28;20584;-62
2021/06/01 11:17:44;;;;;;;4.00;3.37;;;23.70;36.80;;;;;;6249241;28;20570;-62
2021/06/01 11:21:08;;;;;;;6.30;3.00;;;23.40;37.50;;;;;;6249029;28;20694;-62
2021/06/01 11:34:27;;;;;;;2.60;2.40;;;23.40;38.40;;;;;;6208406;28;20290;-63
2021/06/01 11:37:37;;;;;;;2.57;2.33;;;23.70;37.00;;;;;;6224384;28;20693;-63
2021/06/01 11:44:16;;;;;;;3.30;3.00;;;23.50;38.60;;;;;;6187452;28;20228;-63
2021/06/01 11:47:28;;;;;;;3.30;2.40;;;23.30;38.50;;;;;;6224429;28;20215;-63
2021/06/01 11:53:55;;;;;;;2.93;2.50;;;23.40;39.50;;;;;;6224209;28;20233;-63
2021/06/01 11:57:07;;;;;;;5.77;2.70;;;23.70;38.80;;;;;;6224844;28;20542;-63
2021/06/01 12:03:55;;;;;;;3.17;2.23;;;23.50;38.10;;;;;;6205732;28;20308;-62
2021/06/01 12:13:56;;;;;;;3.43;2.70;;;23.40;38.70;;;;;;6229934;28;20239;-63
2021/06/01 12:17:14;;;;;;;2.73;2.53;;;23.30;38.70;;;;;;6228609;28;20237;-63
2021/06/01 12:20:17;;;;;;;4.57;2.80;;;23.30;38.30;;;;;;6254116;28;20224;-62
2021/06/01 12:23:32;;;;;;;3.20;2.47;;;23.30;38.50;;;;;;6253430;28;20701;-63
2021/06/01 12:26:42;;;;;;;3.53;2.33;;;23.30;38.90;;;;;;6253710;28;20224;-63
2021/06/01 12:33:08;;;;;;;4.80;2.60;;;23.20;38.20;;;;;;6252677;28;20228;-62
2021/06/01 12:43:13;;;;;;;6.37;2.57;;;22.90;39.10;;;;;;6227893;28;20235;-62
2021/06/01 12:46:30;;;;;;;4.90;4.13;;;22.70;39.60;;;;;;6227617;28;20255;-62
2021/06/01 13:07:55;;;;;;;8.47;3.20;;;22.90;40.50;;;;;;6223401;28;20240;-62
2021/06/01 13:14:40;;;;;;;2.70;2.40;;;23.10;39.50;;;;;;6251342;28;20638;-62
2021/06/01 13:21:08;;;;;;;3.50;3.07;;;22.90;39.40;;;;;;6252006;28;20232;-62
2021/06/01 13:24:30;;;;;;;4.90;3.00;;;22.80;39.60;;;;;;6251068;28;20243;-62
2021/06/01 13:31:16;;;;;;;2.83;2.53;;;22.80;38.80;;;;;;6251627;28;20224;-62
2021/06/01 13:48:08;;;;;;;2.80;2.60;;;22.00;40.80;;;;;;6251414;28;20231;-64
2021/06/01 13:51:28;;;;;;;5.83;3.90;;;22.20;40.90;;;;;;6250553;28;20574;-64
2021/06/01 13:58:24;;;;;;;4.00;2.73;;;22.20;39.40;;;;;;6250801;28;20243;-62
2021/06/01 14:01:40;;;;;;;3.10;2.90;;;22.20;39.90;;;;;;6250399;28;20242;-63
2021/06/01 14:15:21;;;;;;;4.83;3.00;;;21.90;41.30;;;;;;6250520;28;20725;-63
2021/06/01 14:22:02;;;;;;;4.23;3.00;;;22.10;40.80;;;;;;6250305;28;20239;-63
2021/06/01 14:39:03;;;;;;;3.97;3.07;;;22.10;41.60;;;;;;6249884;28;20225;-62
2021/06/01 15:29:40;;;;;;;3.80;3.50;;;22.40;41.50;;;;;;6248800;28;20223;-62
2021/06/01 15:32:55;;;;;;;3.47;3.27;;;22.40;40.80;;;;;;6249347;28;20231;-62
2021/06/01 15:49:28;;;;;;;5.00;3.53;;;22.10;41.50;;;;;;6237144;28;20252;-62
2021/06/01 16:23:02;;;;;;;3.83;3.43;;;21.90;42.30;;;;;;6253349;28;20228;-62
2021/06/01 16:29:47;;;;;;;7.23;3.50;;;22.10;41.70;;;;;;6252993;28;20224;-62
2021/06/01 16:33:23;;;;;;;5.10;3.10;;;21.90;41.70;;;;;;6253000;28;20524;-62
2021/06/01 17:03:36;;;;;;;4.00;3.70;;;22.00;41.50;;;;;;6227538;28;20233;-62
2021/06/01 17:06:49;;;;;;;5.10;3.80;;;22.00;41.90;;;;;;6227838;28;20670;-62
2021/06/01 17:13:17;;;;;;;3.70;3.40;;;21.50;42.30;;;;;;6227610;28;20243;-62
2021/06/01 17:16:30;;;;;;;3.57;3.27;;;21.40;42.20;;;;;;6226989;28;20256;-62
2021/06/01 17:23:18;;;;;;;4.83;3.83;;;21.20;43.30;;;;;;6199115;28;20231;-62
2021/06/01 17:36:28;;;;;;;4.43;3.40;;;20.60;44.50;;;;;;6206118;28;20229;-61
2021/06/01 17:39:31;;;;;;;3.73;3.37;;;20.50;44.70;;;;;;6226864;28;20229;-63
2021/06/01 17:42:34;;;;;;;3.47;2.80;;;20.50;45.20;;;;;;6226968;28;20244;-62
2021/06/01 17:45:40;;;;;;;3.53;3.07;;;20.40;44.60;;;;;;6226163;28;20256;-62
2021/06/01 17:48:54;;;;;;;3.60;2.50;;;20.20;44.80;;;;;;6226483;28;20705;-62
2021/06/01 17:51:59;;;;;;;5.00;2.97;;;20.00;45.00;;;;;;6226337;28;20241;-62
2021/06/01 17:55:05;;;;;;;3.70;3.27;;;19.80;45.50;;;;;;6227022;28;20260;-61
2021/06/01 17:58:08;;;;;;;3.30;3.00;;;19.70;46.10;;;;;;6226274;28;20263;-62
2021/06/01 18:01:14;;;;;;;5.10;3.33;;;19.70;46.30;;;;;;6226160;28;20705;-61
2021/06/01 18:04:20;;;;;;;4.10;3.70;;;19.70;47.00;;;;;;6226132;28;20237;-62
2021/06/01 18:07:27;;;;;;;4.40;2.80;;;19.70;46.50;;;;;;6226536;28;20713;-62
2021/06/01 18:37:46;;;;;;;3.87;3.57;;;19.50;47.90;;;;;;6249625;28;20232;-63
2021/06/01 18:41:22;;;;;;;4.90;3.90;;;19.50;48.00;;;;;;6249894;28;20548;-62
2021/06/01 18:51:49;;;;;;;3.90;3.50;;;19.30;49.00;;;;;;6249928;28;20241;-62
2021/06/01 19:02:00;;;;;;;4.03;3.57;;;18.90;49.40;;;;;;6225721;28;20233;-62
2021/06/01 19:25:24;;;;;;;10.20;7.10;;;18.30;51.00;;;;;;6229664;28;20472;-63
2021/06/01 19:28:53;;;;;;;6.33;5.80;;;18.30;51.10;;;;;;6229777;28;20225;-63
2021/06/01 19:42:39;;;;;;;5.43;3.40;;;18.20;51.60;;;;;;6253909;28;20781;-62
2021/06/01 19:52:28;;;;;;;3.07;2.77;;;18.20;51.70;;;;;;6253629;28;20477;-62
2021/06/01 19:55:32;;;;;;;4.17;3.53;;;18.20;52.10;;;;;;6254052;28;20487;-62
2021/06/01 19:58:35;;;;;;;4.30;3.37;;;18.20;52.20;;;;;;6253481;28;20475;-62
2021/06/01 20:01:40;;;;;;;5.23;3.50;;;18.20;53.10;;;;;;6253888;28;20470;-62
2021/06/01 20:04:43;;;;;;;4.57;2.90;;;18.20;52.70;;;;;;6253429;28;20804;-62
2021/06/01 20:07:47;;;;;;;3.57;3.23;;;18.10;52.60;;;;;;6253517;28;20478;-62
2021/06/01 20:10:54;;;;;;;3.27;2.97;;;18.10;52.50;;;;;;6253672;28;20469;-62
2021/06/01 20:13:58;;;;;;;3.83;3.53;;;18.10;52.70;;;;;;6253050;28;20472;-62
2021/06/01 20:17:06;;;;;;;4.87;3.37;;;17.90;52.70;;;;;;6253244;28;20475;-62
2021/06/01 20:20:12;;;;;;;4.03;3.70;;;17.90;52.90;;;;;;6252602;28;20482;-62
2021/06/01 20:23:19;;;;;;;4.87;3.43;;;17.80;53.10;;;;;;6253115;28;20493;-63
2021/06/01 20:26:24;;;;;;;3.90;3.40;;;17.80;53.70;;;;;;6253197;28;20454;-62
2021/06/01 20:29:32;;;;;;;5.00;3.30;;;17.60;54.80;;;;;;6253016;28;20455;-62
2021/06/01 20:35:58;;;;;;;3.70;3.40;;;17.20;56.90;;;;;;6253077;28;20474;-62
2021/06/01 20:39:03;;;;;;;5.33;3.53;;;17.20;57.40;;;;;;6252721;28;20471;-63
2021/06/01 20:42:06;;;;;;;4.87;3.77;;;17.20;57.60;;;;;;6252546;28;20487;-63
2021/06/01 20:45:09;;;;;;;4.30;3.90;;;17.20;57.80;;;;;;6252225;28;20482;-62
2021/06/01 20:48:17;;;;;;;4.77;4.27;;;17.20;58.20;;;;;;6252531;28;20471;-62
2021/06/01 20:51:20;;;;;;;5.77;4.13;;;17.10;58.60;;;;;;6252470;28;20490;-62
2021/06/01 20:54:25;;;;;;;4.60;3.73;;;17.10;58.80;;;;;;6252302;28;20490;-62
2021/06/01 20:57:29;;;;;;;3.63;3.33;;;17.00;58.90;;;;;;6252085;28;20514;-62
2021/06/01 21:00:34;;;;;;;6.30;4.47;;;17.00;59.20;;;;;;6251998;28;20818;-62
2021/06/01 21:03:43;;;;;;;4.00;3.63;;;16.80;59.60;;;;;;6251956;28;21043;-62
2021/06/01 21:06:47;;;;;;;4.27;3.60;;;16.80;60.00;;;;;;6252097;28;20972;-63
2021/06/01 21:09:50;;;;;;;3.93;3.60;;;16.80;61.00;;;;;;6252119;28;20470;-64
2021/06/01 21:12:54;;;;;;;5.33;4.83;;;16.70;61.50;;;;;;6252407;28;20486;-62
2021/06/01 21:15:58;;;;;;;5.93;3.70;;;16.60;62.00;;;;;;6251582;28;20978;-63
2021/06/01 21:19:03;;;;;;;4.40;4.00;;;16.60;62.20;;;;;;6251843;28;20470;-62
2021/06/01 21:22:06;;;;;;;3.93;3.63;;;16.60;62.50;;;;;;6251856;28;20479;-61
2021/06/01 21:25:13;;;;;;;4.70;3.90;;;16.50;62.80;;;;;;6251305;28;20956;-61
2021/06/01 21:28:18;;;;;;;6.57;4.20;;;16.50;63.30;;;;;;6251840;28;20482;-61
2021/06/01 21:31:23;;;;;;;4.50;4.10;;;16.50;63.40;;;;;;6251322;28;20471;-62
2021/06/01 21:34:28;;;;;;;4.60;4.20;;;16.40;63.50;;;;;;6251402;28;20471;-62
2021/06/01 21:37:32;;;;;;;8.70;4.13;;;16.40;64.00;;;;;;6251449;28;20490;-62
2021/06/01 21:40:37;;;;;;;4.30;3.90;;;16.30;63.90;;;;;;6251522;28;20980;-62
2021/06/01 21:43:40;;;;;;;4.40;3.80;;;16.30;63.60;;;;;;6250593;28;20478;-62
2021/06/01 21:46:46;;;;;;;4.10;3.70;;;16.20;63.70;;;;;;6251200;28;20470;-62
2021/06/01 21:49:53;;;;;;;5.00;3.83;;;16.20;64.20;;;;;;6250875;28;21023;-62
2021/06/01 21:52:58;;;;;;;4.80;3.70;;;16.20;64.90;;;;;;6251327;28;20493;-62
2021/06/01 21:56:01;;;;;;;3.70;3.40;;;16.10;65.10;;;;;;6250600;28;20471;-62
2021/06/01 21:59:04;;;;;;;4.07;3.77;;;16.00;65.30;;;;;;6225960;28;20570;-61
2021/06/01 22:02:07;;;;;;;4.03;3.73;;;16.00;65.50;;;;;;6250593;28;20475;-62
2021/06/01 22:05:12;;;;;;;3.93;3.47;;;16.00;65.70;;;;;;6250760;28;20463;-62